createdAt,value
2018-03-04T00:00:00.244Z,1.95
2018-03-04T00:01:02.774Z,1.97
2018-03-04T00:02:05.330Z,1.94
2018-03-04T00:03:07.858Z,1.92
2018-03-04T00:04:10.370Z,1.94
2018-03-04T00:05:12.909Z,1.95
2018-03-04T00:06:15.452Z,1.98
2018-03-04T00:07:17.965Z,2.02
2018-03-04T00:08:20.486Z,1.97
2018-03-04T00:09:23.007Z,2.02
2018-03-04T00:10:25.534Z,2.02
2018-03-04T00:11:28.070Z,2.07
2018-03-04T00:12:30.586Z,2.01
2018-03-04T00:13:33.110Z,1.99
2018-03-04T00:14:35.630Z,2.07
2018-03-04T00:15:38.150Z,2.07
2018-03-04T00:16:40.690Z,2.12
2018-03-04T00:17:43.231Z,2.14
2018-03-04T00:18:45.772Z,2.11
2018-03-04T00:19:48.291Z,2.05
2018-03-04T00:20:50.822Z,2.14
2018-03-04T00:21:53.354Z,2.09
2018-03-04T00:22:55.865Z,2.13
2018-03-04T00:23:58.406Z,2.13
2018-03-04T00:25:00.937Z,2.09
2018-03-04T00:26:03.484Z,2.14
2018-03-04T00:27:06.027Z,1.99
2018-03-04T00:28:08.600Z,2.03
2018-03-04T00:29:11.155Z,2.07
2018-03-04T00:30:13.721Z,2.06
2018-03-04T00:31:16.234Z,2.00
2018-03-04T00:32:18.773Z,2.04
2018-03-04T00:33:21.310Z,2.07
2018-03-04T00:34:23.844Z,2.06
2018-03-04T00:35:26.414Z,2.16
2018-03-04T00:36:28.934Z,2.04
2018-03-04T00:37:31.450Z,2.08
2018-03-04T00:38:33.994Z,2.13
2018-03-04T00:39:36.526Z,2.10
2018-03-04T00:40:39.061Z,2.10
2018-03-04T00:41:41.586Z,2.04
2018-03-04T00:42:44.130Z,2.10
2018-03-04T00:43:46.676Z,1.98
2018-03-04T00:44:49.204Z,2.02
2018-03-04T00:45:51.740Z,2.02
2018-03-04T00:46:54.272Z,2.01
2018-03-04T00:47:56.801Z,2.08
2018-03-04T00:48:59.322Z,2.04
2018-03-04T00:50:01.838Z,2.05
2018-03-04T00:51:04.381Z,2.01
2018-03-04T00:52:06.910Z,2.02
2018-03-04T00:53:09.449Z,1.98
2018-03-04T00:54:11.994Z,2.07
2018-03-04T00:55:14.568Z,2.02
2018-03-04T00:56:17.154Z,2.00
2018-03-04T00:57:19.674Z,2.02
2018-03-04T00:58:22.185Z,2.01
2018-03-04T00:59:24.725Z,2.02
2018-03-04T01:00:27.276Z,1.90
2018-03-04T01:01:29.802Z,2.02
2018-03-04T01:02:32.318Z,1.99
2018-03-04T01:03:34.851Z,1.95
2018-03-04T01:04:37.405Z,1.87
2018-03-04T01:05:39.917Z,2.00
2018-03-04T01:06:42.452Z,1.97
2018-03-04T01:07:44.971Z,2.01
2018-03-04T01:08:47.507Z,1.96
2018-03-04T01:09:50.036Z,2.01
2018-03-04T01:10:52.558Z,1.99
2018-03-04T01:11:55.097Z,2.01
2018-03-04T01:12:57.633Z,2.00
2018-03-04T01:14:00.169Z,2.08
2018-03-04T01:15:02.703Z,1.98
2018-03-04T01:16:05.240Z,2.02
2018-03-04T01:17:07.772Z,2.05
2018-03-04T01:18:10.291Z,2.05
2018-03-04T01:19:12.805Z,2.06
2018-03-04T01:20:15.340Z,2.00
2018-03-04T01:21:17.868Z,2.00
2018-03-04T01:22:20.382Z,1.99
2018-03-04T01:23:22.923Z,1.99
2018-03-04T01:24:25.532Z,1.97
2018-03-04T01:25:28.034Z,1.98
2018-03-04T01:26:30.567Z,2.01
2018-03-04T01:27:33.088Z,2.04
2018-03-04T01:28:35.605Z,2.07
2018-03-04T01:29:38.132Z,1.95
2018-03-04T01:30:40.692Z,1.91
2018-03-04T01:31:43.214Z,1.95
2018-03-04T01:32:45.739Z,1.96
2018-03-04T01:33:48.283Z,2.01
2018-03-04T01:34:50.835Z,2.09
2018-03-04T01:35:53.366Z,2.11
2018-03-04T01:36:55.886Z,2.12
2018-03-04T01:37:58.415Z,2.01
2018-03-04T01:39:00.926Z,2.00
2018-03-04T01:40:03.445Z,2.07
2018-03-04T01:41:05.989Z,2.01
2018-03-04T01:42:08.521Z,1.97
2018-03-04T01:43:11.056Z,2.08
2018-03-04T01:44:13.587Z,2.12
2018-03-04T01:45:16.128Z,2.03
2018-03-04T01:46:18.684Z,1.99
2018-03-04T01:47:21.216Z,2.01
2018-03-04T01:48:23.750Z,1.88
2018-03-04T01:49:26.280Z,1.97
2018-03-04T01:50:28.798Z,1.87
2018-03-04T01:51:43.083Z,1.90
2018-03-04T01:52:45.631Z,1.89
2018-03-04T01:53:48.186Z,1.95
2018-03-04T01:54:50.707Z,1.89
2018-03-04T01:55:53.235Z,1.92
2018-03-04T01:56:55.773Z,1.86
2018-03-04T01:57:58.308Z,1.91
2018-03-04T01:59:00.899Z,1.94
2018-03-04T02:00:03.436Z,2.05
2018-03-04T02:01:05.967Z,1.93
2018-03-04T02:02:08.507Z,2.03
2018-03-04T02:03:11.023Z,2.04
2018-03-04T02:04:13.568Z,2.06
2018-03-04T02:05:16.082Z,2.12
2018-03-04T02:06:18.598Z,2.02
2018-03-04T02:07:21.224Z,2.03
2018-03-04T02:08:23.766Z,2.07
2018-03-04T02:09:26.295Z,2.16
2018-03-04T02:10:28.818Z,2.13
2018-03-04T02:11:31.347Z,2.15
2018-03-04T02:12:33.890Z,2.21
2018-03-04T02:13:36.405Z,2.23
2018-03-04T02:14:38.961Z,2.16
2018-03-04T02:15:41.483Z,2.15
2018-03-04T02:16:44.016Z,2.17
2018-03-04T02:17:46.563Z,2.20
2018-03-04T02:18:49.109Z,2.32
2018-03-04T02:19:51.670Z,2.22
2018-03-04T02:20:54.208Z,2.24
2018-03-04T02:21:56.740Z,2.25
2018-03-04T02:22:59.278Z,2.26
2018-03-04T02:24:01.817Z,2.18
2018-03-04T02:25:04.369Z,2.21
2018-03-04T02:26:06.949Z,2.19
2018-03-04T02:27:09.466Z,2.12
2018-03-04T02:28:12.019Z,2.19
2018-03-04T02:29:14.552Z,2.27
2018-03-04T02:30:17.097Z,2.08
2018-03-04T02:31:19.624Z,2.18
2018-03-04T02:32:22.145Z,2.21
2018-03-04T02:33:24.703Z,2.31
2018-03-04T02:34:27.223Z,2.31
2018-03-04T02:35:29.761Z,2.23
2018-03-04T02:36:32.292Z,2.25
2018-03-04T02:37:34.825Z,2.22
2018-03-04T02:38:37.385Z,2.14
2018-03-04T02:39:39.916Z,2.36
2018-03-04T02:40:42.448Z,2.28
2018-03-04T02:41:44.985Z,2.29
2018-03-04T02:42:47.510Z,2.33
2018-03-04T02:43:50.081Z,2.34
2018-03-04T02:44:52.618Z,2.40
2018-03-04T02:45:55.135Z,2.41
2018-03-04T02:46:57.658Z,2.29
2018-03-04T02:48:00.199Z,2.36
2018-03-04T02:49:02.745Z,2.47
2018-03-04T02:50:05.280Z,2.46
2018-03-04T02:51:07.832Z,2.52
2018-03-04T02:52:10.397Z,2.43
2018-03-04T02:53:12.910Z,2.48
2018-03-04T02:54:15.450Z,2.42
2018-03-04T02:55:17.973Z,2.47
2018-03-04T02:56:20.487Z,2.45
2018-03-04T02:57:23.005Z,2.39
2018-03-04T02:58:25.548Z,2.41
2018-03-04T02:59:28.108Z,2.50
2018-03-04T03:00:30.653Z,2.52
2018-03-04T03:01:33.188Z,2.33
2018-03-04T03:02:35.737Z,2.30
2018-03-04T03:03:38.280Z,2.48
2018-03-04T03:04:40.819Z,2.57
2018-03-04T03:05:43.365Z,2.47
2018-03-04T03:06:45.898Z,2.47
2018-03-04T03:07:48.427Z,2.56
2018-03-04T03:08:50.964Z,2.41
2018-03-04T03:09:53.497Z,2.40
2018-03-04T03:10:56.028Z,2.26
2018-03-04T03:11:58.541Z,2.36
2018-03-04T03:13:01.076Z,2.43
2018-03-04T03:14:03.600Z,2.41
2018-03-04T03:15:06.149Z,2.41
2018-03-04T03:16:08.673Z,2.49
2018-03-04T03:17:11.193Z,2.40
2018-03-04T03:18:13.735Z,2.51
2018-03-04T03:19:16.247Z,2.41
2018-03-04T03:20:18.826Z,2.55
2018-03-04T03:21:21.369Z,2.45
2018-03-04T03:22:23.904Z,2.52
2018-03-04T03:23:26.452Z,2.48
2018-03-04T03:24:28.973Z,2.45
2018-03-04T03:25:31.517Z,2.43
2018-03-04T03:26:34.037Z,2.48
2018-03-04T03:27:36.567Z,2.59
2018-03-04T03:28:39.082Z,2.60
2018-03-04T03:29:41.642Z,2.52
2018-03-04T03:30:44.237Z,2.58
2018-03-04T03:31:46.760Z,2.50
2018-03-04T03:32:49.278Z,2.65
2018-03-04T03:33:51.816Z,2.60
2018-03-04T03:34:54.337Z,2.45
2018-03-04T03:35:56.894Z,2.57
2018-03-04T03:36:59.433Z,2.60
2018-03-04T03:38:01.950Z,2.56
2018-03-04T03:39:04.505Z,2.56
2018-03-04T03:40:07.017Z,2.44
2018-03-04T03:41:09.581Z,2.48
2018-03-04T03:42:12.113Z,2.42
2018-03-04T03:43:14.652Z,2.45
2018-03-04T03:44:17.161Z,2.51
2018-03-04T03:45:19.682Z,2.50
2018-03-04T03:46:22.246Z,2.55
2018-03-04T03:47:24.762Z,2.52
2018-03-04T03:48:27.301Z,2.44
2018-03-04T03:49:29.823Z,2.47
2018-03-04T03:50:32.355Z,2.57
2018-03-04T03:51:34.898Z,2.59
2018-03-04T03:52:37.427Z,2.63
2018-03-04T03:53:39.945Z,2.59
2018-03-04T03:54:42.473Z,2.51
2018-03-04T03:55:45.021Z,2.62
2018-03-04T03:56:47.584Z,2.63
2018-03-04T03:57:50.102Z,2.53
2018-03-04T03:58:52.625Z,2.57
2018-03-04T03:59:55.163Z,2.63
2018-03-04T04:00:57.684Z,2.53
2018-03-04T04:02:00.233Z,2.59
2018-03-04T04:03:02.769Z,2.68
2018-03-04T04:04:05.332Z,2.61
2018-03-04T04:05:07.880Z,2.58
2018-03-04T04:06:10.426Z,2.52
2018-03-04T04:07:12.986Z,2.41
2018-03-04T04:08:15.512Z,2.49
2018-03-04T04:09:18.055Z,2.59
2018-03-04T04:10:20.614Z,2.57
2018-03-04T04:11:23.129Z,2.56
2018-03-04T04:12:25.723Z,2.50
2018-03-04T04:13:28.238Z,2.61
2018-03-04T04:14:30.759Z,2.50
2018-03-04T04:15:33.301Z,2.50
2018-03-04T04:16:35.831Z,2.55
2018-03-04T04:17:38.366Z,2.62
2018-03-04T04:18:40.972Z,2.73
2018-03-04T04:19:43.494Z,2.72
2018-03-04T04:20:46.039Z,2.73
2018-03-04T04:21:48.602Z,2.70
2018-03-04T04:22:51.160Z,2.74
2018-03-04T04:23:53.696Z,2.56
2018-03-04T04:24:56.242Z,2.55
2018-03-04T04:25:58.793Z,2.56
2018-03-04T04:27:01.329Z,2.55
2018-03-04T04:28:03.896Z,2.64
2018-03-04T04:29:06.427Z,2.71
2018-03-04T04:30:08.968Z,2.68
2018-03-04T04:31:11.486Z,2.75
2018-03-04T04:32:14.052Z,2.64
2018-03-04T04:33:16.605Z,2.74
2018-03-04T04:34:19.130Z,2.78
2018-03-04T04:35:21.656Z,2.80
2018-03-04T04:36:24.201Z,2.63
2018-03-04T04:37:26.732Z,2.78
2018-03-04T04:38:29.296Z,2.69
2018-03-04T04:39:31.832Z,2.61
2018-03-04T04:40:34.350Z,2.65
2018-03-04T04:41:36.900Z,2.72
2018-03-04T04:42:39.452Z,2.68
2018-03-04T04:43:42.016Z,2.73
2018-03-04T04:44:44.538Z,2.71
2018-03-04T04:45:47.068Z,2.68
2018-03-04T04:46:49.587Z,2.62
2018-03-04T04:47:52.120Z,2.70
2018-03-04T04:48:54.669Z,2.64
2018-03-04T04:49:57.204Z,2.57
2018-03-04T04:50:59.737Z,2.74
2018-03-04T04:52:02.305Z,2.65
2018-03-04T04:53:04.836Z,2.66
2018-03-04T04:54:07.369Z,2.74
2018-03-04T04:55:09.898Z,2.84
2018-03-04T04:56:12.414Z,2.74
2018-03-04T04:57:14.930Z,2.78
2018-03-04T04:58:17.464Z,2.78
2018-03-04T04:59:20.013Z,2.77
2018-03-04T05:00:22.530Z,2.87
2018-03-04T05:01:25.064Z,2.88
2018-03-04T05:02:27.600Z,2.83
2018-03-04T05:03:30.139Z,2.79
2018-03-04T05:04:32.673Z,2.85
2018-03-04T05:05:35.203Z,2.74
2018-03-04T05:06:37.745Z,2.84
2018-03-04T05:07:40.287Z,2.83
2018-03-04T05:08:42.819Z,2.64
2018-03-04T05:09:45.415Z,2.70
2018-03-04T05:10:47.934Z,2.76
2018-03-04T05:11:50.476Z,2.66
2018-03-04T05:12:53.007Z,2.77
2018-03-04T05:13:55.524Z,2.82
2018-03-04T05:14:58.078Z,2.77
2018-03-04T05:16:00.593Z,2.74
2018-03-04T05:17:03.117Z,2.74
2018-03-04T05:18:05.643Z,2.84
2018-03-04T05:19:08.158Z,2.75
2018-03-04T05:20:10.745Z,2.74
2018-03-04T05:21:13.270Z,2.67
2018-03-04T05:22:15.796Z,2.78
2018-03-04T05:23:18.369Z,2.77
2018-03-04T05:24:20.889Z,2.73
2018-03-04T05:25:23.440Z,2.75
2018-03-04T05:26:25.974Z,2.78
2018-03-04T05:27:28.503Z,2.75
2018-03-04T05:28:31.039Z,2.75
2018-03-04T05:29:33.604Z,2.72
2018-03-04T05:30:36.171Z,2.80
2018-03-04T05:31:38.709Z,2.83
2018-03-04T05:32:41.226Z,2.72
2018-03-04T05:33:43.764Z,2.80
2018-03-04T05:34:46.298Z,2.82
2018-03-04T05:35:48.873Z,2.79
2018-03-04T05:36:51.420Z,2.71
2018-03-04T05:37:53.934Z,2.68
2018-03-04T05:38:56.486Z,2.76
2018-03-04T05:39:59.014Z,2.75
2018-03-04T05:41:01.572Z,2.74
2018-03-04T05:42:04.108Z,2.69
2018-03-04T05:43:06.639Z,2.65
2018-03-04T05:44:09.192Z,2.69
2018-03-04T05:45:11.796Z,2.66
2018-03-04T05:46:14.357Z,2.66
2018-03-04T05:47:16.887Z,2.76
2018-03-04T05:48:19.428Z,2.79
2018-03-04T05:49:21.964Z,2.76
2018-03-04T05:50:24.496Z,2.74
2018-03-04T05:51:27.053Z,2.78
2018-03-04T05:52:29.570Z,2.69
2018-03-04T05:53:32.086Z,2.76
2018-03-04T05:54:34.619Z,2.64
2018-03-04T05:55:37.148Z,2.35
2018-03-04T05:56:39.685Z,2.83
2018-03-04T05:57:42.221Z,2.70
2018-03-04T05:58:44.769Z,2.62
2018-03-04T05:59:47.294Z,2.67
2018-03-04T06:00:49.831Z,2.66
2018-03-04T06:01:52.370Z,2.64
2018-03-04T06:02:54.912Z,2.72
2018-03-04T06:03:57.430Z,2.79
2018-03-04T06:04:59.967Z,2.77
2018-03-04T06:06:02.491Z,2.67
2018-03-04T06:07:05.026Z,2.65
2018-03-04T06:08:07.550Z,2.80
2018-03-04T06:09:10.084Z,2.79
2018-03-04T06:10:12.624Z,2.76
2018-03-04T06:11:15.147Z,2.77
2018-03-04T06:12:17.723Z,2.73
2018-03-04T06:13:20.229Z,2.62
2018-03-04T06:14:22.746Z,2.76
2018-03-04T06:15:25.270Z,2.66
2018-03-04T06:16:27.828Z,2.70
2018-03-04T06:17:30.378Z,2.63
2018-03-04T06:18:32.899Z,2.69
2018-03-04T06:19:35.418Z,2.67
2018-03-04T06:20:37.961Z,2.61
2018-03-04T06:21:40.516Z,2.67
2018-03-04T06:22:43.053Z,2.68
2018-03-04T06:23:45.566Z,2.64
2018-03-04T06:24:48.252Z,2.68
2018-03-04T06:25:50.793Z,2.64
2018-03-04T06:26:56.987Z,2.64
2018-03-04T06:28:20.408Z,2.61
2018-03-04T06:29:22.949Z,2.65
2018-03-04T06:30:25.469Z,2.61
2018-03-04T06:31:27.986Z,2.54
2018-03-04T06:32:30.516Z,2.59
2018-03-04T06:33:33.165Z,2.61
2018-03-04T06:34:35.685Z,2.57
2018-03-04T06:35:38.206Z,2.50
2018-03-04T06:36:40.776Z,2.53
2018-03-04T06:37:43.315Z,2.51
2018-03-04T06:38:45.866Z,2.49
2018-03-04T06:39:48.407Z,2.57
2018-03-04T06:40:51.011Z,2.62
2018-03-04T06:41:54.756Z,2.76
2018-03-04T06:42:57.291Z,2.64
2018-03-04T06:43:59.807Z,2.64
2018-03-04T06:45:02.326Z,3.12
2018-03-04T06:46:04.856Z,3.18
2018-03-04T06:47:07.391Z,3.54
2018-03-04T06:48:09.909Z,3.72
2018-03-04T06:49:12.446Z,3.57
2018-03-04T06:50:14.977Z,3.46
2018-03-04T06:51:17.502Z,3.40
2018-03-04T06:52:20.064Z,3.60
2018-03-04T06:53:22.601Z,3.46
2018-03-04T06:54:25.137Z,3.39
2018-03-04T06:55:27.693Z,3.46
2018-03-04T06:56:30.210Z,3.47
2018-03-04T06:57:32.744Z,3.46
2018-03-04T06:58:35.529Z,3.60
2018-03-04T06:59:38.073Z,3.64
2018-03-04T07:00:40.612Z,3.75
2018-03-04T07:01:43.146Z,3.75
2018-03-04T07:02:45.689Z,3.72
2018-03-04T07:03:48.209Z,3.54
2018-03-04T07:04:50.743Z,3.59
2018-03-04T07:05:53.262Z,3.68
2018-03-04T07:06:55.785Z,3.63
2018-03-04T07:07:58.305Z,3.76
2018-03-04T07:09:00.822Z,3.89
2018-03-04T07:10:03.338Z,3.78
2018-03-04T07:11:05.856Z,3.76
2018-03-04T07:12:08.374Z,3.74
2018-03-04T07:13:11.102Z,3.72
2018-03-04T07:14:13.618Z,3.82
2018-03-04T07:15:16.150Z,3.83
2018-03-04T07:16:18.883Z,3.87
2018-03-04T07:18:37.681Z,3.81
2018-03-04T07:19:40.476Z,3.86
2018-03-04T07:20:43.064Z,3.82
2018-03-04T07:21:45.814Z,3.79
2018-03-04T07:22:48.401Z,3.80
2018-03-04T07:23:50.934Z,3.94
2018-03-04T07:24:53.543Z,3.87
2018-03-04T07:25:56.146Z,4.42
2018-03-04T07:26:58.789Z,4.71
2018-03-04T07:28:01.320Z,4.81
2018-03-04T07:29:03.847Z,4.82
2018-03-04T07:30:06.396Z,4.69
2018-03-04T07:31:08.939Z,4.59
2018-03-04T07:32:11.472Z,4.46
2018-03-04T07:33:13.995Z,4.60
2018-03-04T07:34:16.533Z,4.76
2018-03-04T07:35:19.068Z,5.02
2018-03-04T07:36:21.603Z,4.99
2018-03-04T07:37:24.118Z,5.17
2018-03-04T07:38:26.646Z,5.53
2018-03-04T07:39:29.172Z,5.46
2018-03-04T07:40:31.686Z,5.41
2018-03-04T07:41:34.210Z,4.97
2018-03-04T07:42:36.740Z,5.24
2018-03-04T07:43:39.285Z,5.56
2018-03-04T07:44:41.798Z,6.12
2018-03-04T07:45:44.349Z,6.38
2018-03-04T07:46:46.915Z,6.42
2018-03-04T07:47:49.446Z,6.17
2018-03-04T07:48:51.970Z,5.95
2018-03-04T07:49:54.491Z,5.91
2018-03-04T07:50:57.002Z,6.32
2018-03-04T07:51:59.528Z,6.03
2018-03-04T07:53:02.074Z,6.06
2018-03-04T07:54:04.604Z,5.74
2018-03-04T07:55:07.121Z,5.55
2018-03-04T07:56:09.652Z,5.10
2018-03-04T07:57:12.162Z,5.11
2018-03-04T07:58:14.685Z,5.17
2018-03-04T07:59:17.263Z,5.19
2018-03-04T08:00:19.796Z,4.88
2018-03-04T08:01:22.321Z,4.97
2018-03-04T08:02:24.857Z,4.88
2018-03-04T08:03:27.391Z,5.08
2018-03-04T08:04:29.920Z,5.26
2018-03-04T08:05:32.481Z,5.18
2018-03-04T08:06:34.998Z,5.78
2018-03-04T08:07:37.653Z,5.99
2018-03-04T08:08:40.183Z,6.39
2018-03-04T08:09:42.714Z,6.45
2018-03-04T08:10:45.280Z,6.73
2018-03-04T08:11:47.814Z,6.31
2018-03-04T08:12:50.325Z,6.39
2018-03-04T08:13:52.841Z,6.13
2018-03-04T08:14:55.361Z,6.26
2018-03-04T08:15:57.877Z,6.20
2018-03-04T08:17:00.581Z,5.96
2018-03-04T08:18:03.221Z,5.54
2018-03-04T08:19:05.752Z,5.12
2018-03-04T08:20:08.266Z,5.01
2018-03-04T08:21:10.781Z,5.39
2018-03-04T08:22:13.294Z,5.40
2018-03-04T08:23:15.820Z,5.41
2018-03-04T08:24:30.160Z,5.59
2018-03-04T08:25:36.333Z,5.47
2018-03-04T08:26:50.886Z,5.08
2018-03-04T08:28:05.422Z,5.56
2018-03-04T08:29:07.980Z,5.64
2018-03-04T08:30:10.508Z,5.55
2018-03-04T08:31:13.036Z,5.45
2018-03-04T08:32:15.551Z,5.43
2018-03-04T08:33:18.108Z,5.57
2018-03-04T08:34:20.636Z,5.91
2018-03-04T08:35:23.168Z,6.53
2018-03-04T08:36:25.682Z,6.72
2018-03-04T08:37:28.202Z,7.42
2018-03-04T08:38:30.714Z,7.86
2018-03-04T08:39:33.322Z,7.72
2018-03-04T08:40:35.832Z,7.64
2018-03-04T08:41:38.372Z,7.34
2018-03-04T08:42:40.942Z,7.06
2018-03-04T08:43:43.469Z,6.77
2018-03-04T08:44:46.000Z,7.17
2018-03-04T08:45:48.509Z,6.64
2018-03-04T08:46:51.061Z,6.37
2018-03-04T08:47:53.616Z,6.52
2018-03-04T08:48:56.133Z,6.55
2018-03-04T08:49:58.688Z,6.58
2018-03-04T08:52:32.201Z,6.37
2018-03-04T08:53:34.751Z,6.52
2018-03-04T08:54:37.291Z,6.49
2018-03-04T08:55:39.798Z,6.33
2018-03-04T08:56:42.334Z,6.48
2018-03-04T08:57:44.842Z,6.55
2018-03-04T08:58:47.385Z,5.99
2018-03-04T08:59:49.902Z,5.85
2018-03-04T09:00:52.414Z,6.03
2018-03-04T09:01:54.940Z,5.85
2018-03-04T09:02:57.520Z,5.89
2018-03-04T09:04:00.083Z,5.81
2018-03-04T09:05:02.623Z,5.70
2018-03-04T09:06:05.157Z,5.73
2018-03-04T09:07:07.666Z,5.83
2018-03-04T09:08:10.218Z,5.82
2018-03-04T09:09:12.746Z,6.05
2018-03-04T09:10:15.283Z,5.88
2018-03-04T09:11:17.817Z,5.93
2018-03-04T09:12:20.350Z,6.03
2018-03-04T09:13:22.865Z,6.06
2018-03-04T09:14:25.398Z,6.23
2018-03-04T09:15:27.925Z,6.02
2018-03-04T09:16:30.478Z,5.90
2018-03-04T09:17:33.003Z,5.83
2018-03-04T09:18:35.558Z,5.83
2018-03-04T09:19:38.449Z,5.56
2018-03-04T09:20:40.976Z,5.51
2018-03-04T09:21:43.500Z,5.81
2018-03-04T09:22:46.086Z,6.05
2018-03-04T09:23:48.750Z,6.22
2018-03-04T09:24:51.296Z,6.30
2018-03-04T09:25:53.823Z,6.45
2018-03-04T09:26:56.349Z,6.35
2018-03-04T09:27:58.904Z,6.54
2018-03-04T09:29:01.433Z,6.97
2018-03-04T09:30:03.978Z,7.55
2018-03-04T09:31:06.556Z,8.52
2018-03-04T09:32:09.078Z,8.90
2018-03-04T09:33:11.621Z,9.55
2018-03-04T09:34:14.153Z,10.52
2018-03-04T09:35:16.663Z,9.91
2018-03-04T09:36:19.200Z,9.57
2018-03-04T09:37:21.721Z,9.03
2018-03-04T09:38:24.263Z,9.52
2018-03-04T09:39:26.910Z,9.33
2018-03-04T09:40:29.422Z,8.60
2018-03-04T09:41:31.974Z,9.02
2018-03-04T09:42:34.490Z,8.66
2018-03-04T09:43:37.006Z,8.70
2018-03-04T09:44:39.518Z,9.00
2018-03-04T09:45:47.533Z,9.17
2018-03-04T09:46:57.710Z,10.09
2018-03-04T09:48:00.631Z,10.04
2018-03-04T09:49:03.154Z,9.49
2018-03-04T09:50:05.680Z,9.70
2018-03-04T09:51:08.210Z,9.35
2018-03-04T09:52:10.735Z,8.94
2018-03-04T09:53:13.260Z,8.69
2018-03-04T09:54:15.804Z,8.29
2018-03-04T09:55:18.318Z,8.35
2018-03-04T09:56:20.838Z,8.08
2018-03-04T09:57:23.351Z,7.71
2018-03-04T09:58:25.877Z,7.17
2018-03-04T09:59:28.390Z,7.42
2018-03-04T10:00:30.902Z,7.69
2018-03-04T10:01:33.450Z,7.43
2018-03-04T10:02:35.961Z,7.37
2018-03-04T10:03:38.486Z,7.43
2018-03-04T10:04:40.999Z,7.00
2018-03-04T10:05:43.564Z,7.37
2018-03-04T10:06:46.088Z,7.60
2018-03-04T10:07:48.607Z,7.91
2018-03-04T10:08:51.121Z,7.83
2018-03-04T10:09:53.680Z,7.94
2018-03-04T10:10:56.195Z,8.06
2018-03-04T10:11:58.710Z,7.80
2018-03-04T10:13:01.229Z,7.87
2018-03-04T10:14:03.756Z,7.86
2018-03-04T10:15:06.308Z,7.74
2018-03-04T10:16:08.840Z,8.38
2018-03-04T10:17:11.364Z,8.68
2018-03-04T10:18:13.878Z,8.61
2018-03-04T10:19:16.430Z,8.55
2018-03-04T10:20:18.987Z,8.20
2018-03-04T10:21:21.516Z,8.71
2018-03-04T10:22:24.045Z,9.68
2018-03-04T10:23:26.580Z,10.63
2018-03-04T10:24:29.115Z,11.70
2018-03-04T10:25:31.675Z,11.45
2018-03-04T10:26:34.222Z,12.55
2018-03-04T10:27:36.752Z,13.50
2018-03-04T10:28:39.273Z,14.38
2018-03-04T10:29:41.791Z,14.35
2018-03-04T10:30:44.309Z,12.20
2018-03-04T10:31:46.837Z,13.01
2018-03-04T10:32:49.425Z,14.54
2018-03-04T10:33:51.955Z,15.09
2018-03-04T10:34:54.475Z,16.10
2018-03-04T10:35:57.012Z,15.62
2018-03-04T10:36:59.539Z,16.40
2018-03-04T10:38:02.073Z,16.49
2018-03-04T10:39:04.631Z,15.70
2018-03-04T10:40:07.146Z,15.71
2018-03-04T10:41:09.680Z,16.30
2018-03-04T10:42:12.208Z,16.67
2018-03-04T10:43:14.740Z,16.65
2018-03-04T10:44:17.258Z,14.94
2018-03-04T10:45:19.801Z,15.11
2018-03-04T10:46:22.390Z,15.42
2018-03-04T10:47:24.903Z,15.27
2018-03-04T10:48:27.440Z,15.19
2018-03-04T10:49:29.962Z,15.96
2018-03-04T10:50:32.496Z,15.25
2018-03-04T10:51:35.010Z,14.23
2018-03-04T10:52:37.540Z,13.98
2018-03-04T10:53:40.066Z,13.85
2018-03-04T10:54:42.586Z,13.62
2018-03-04T10:55:45.104Z,12.57
2018-03-04T10:56:47.639Z,12.68
2018-03-04T10:57:50.151Z,12.22
2018-03-04T10:58:52.688Z,11.97
2018-03-04T10:59:55.220Z,11.64
2018-03-04T11:00:57.751Z,11.11
2018-03-04T11:02:05.288Z,10.76
2018-03-04T11:03:07.813Z,10.50
2018-03-04T11:04:10.376Z,10.21
2018-03-04T11:05:12.885Z,9.52
2018-03-04T11:06:15.411Z,9.06
2018-03-04T11:07:18.004Z,8.88
2018-03-04T11:08:20.624Z,8.93
2018-03-04T11:09:23.156Z,8.84
2018-03-04T11:10:25.684Z,8.69
2018-03-04T11:11:28.420Z,8.81
2018-03-04T11:12:30.968Z,8.91
2018-03-04T11:13:33.487Z,9.25
2018-03-04T11:14:36.088Z,9.57
2018-03-04T11:15:38.614Z,9.79
2018-03-04T11:16:41.136Z,9.90
2018-03-04T11:17:43.736Z,10.39
2018-03-04T11:18:46.632Z,10.72
2018-03-04T11:19:49.185Z,11.30
2018-03-04T11:20:51.698Z,12.98
2018-03-04T11:21:54.227Z,14.37
2018-03-04T11:22:56.875Z,16.18
2018-03-04T11:23:59.423Z,17.91
2018-03-04T11:25:01.996Z,17.97
2018-03-04T11:26:04.522Z,17.32
2018-03-04T11:27:07.055Z,17.77
2018-03-04T11:28:09.597Z,18.53
2018-03-04T11:29:12.111Z,18.31
2018-03-04T11:30:14.637Z,18.81
2018-03-04T11:31:17.200Z,18.31
2018-03-04T11:32:19.813Z,17.63
2018-03-04T11:33:22.359Z,15.83
2018-03-04T11:34:24.884Z,14.50
2018-03-04T11:35:27.425Z,14.06
2018-03-04T11:36:29.942Z,14.47
2018-03-04T11:37:32.462Z,15.44
2018-03-04T11:38:35.018Z,16.52
2018-03-04T11:39:37.535Z,18.26
2018-03-04T11:40:40.064Z,19.44
2018-03-04T11:41:42.578Z,20.12
2018-03-04T11:42:45.105Z,21.26
2018-03-04T11:43:47.666Z,18.89
2018-03-04T11:44:50.200Z,17.53
2018-03-04T11:45:52.718Z,17.27
2018-03-04T11:46:55.246Z,16.34
2018-03-04T11:47:57.759Z,14.52
2018-03-04T11:49:00.294Z,13.95
2018-03-04T11:50:02.826Z,13.83
2018-03-04T11:51:05.386Z,14.81
2018-03-04T11:52:07.906Z,15.02
2018-03-04T11:53:10.436Z,15.25
2018-03-04T11:54:13.037Z,15.32
2018-03-04T11:55:15.541Z,17.32
2018-03-04T11:56:18.058Z,18.42
2018-03-04T11:57:20.633Z,20.09
2018-03-04T11:58:23.176Z,19.93
2018-03-04T11:59:25.795Z,20.54
2018-03-04T12:00:28.308Z,20.42
2018-03-04T12:01:30.833Z,20.37
2018-03-04T12:02:33.395Z,19.04
2018-03-04T12:03:35.948Z,19.32
2018-03-04T12:04:38.532Z,19.08
2018-03-04T12:05:41.064Z,19.03
2018-03-04T12:06:43.623Z,19.60
2018-03-04T12:07:46.231Z,19.95
2018-03-04T12:08:48.768Z,20.43
2018-03-04T12:09:51.312Z,20.36
2018-03-04T12:10:53.851Z,21.76
2018-03-04T12:11:56.395Z,20.98
2018-03-04T12:12:58.937Z,20.60
2018-03-04T12:14:01.449Z,20.94
2018-03-04T12:15:04.017Z,21.18
2018-03-04T12:16:06.531Z,22.09
2018-03-04T12:17:09.084Z,21.57
2018-03-04T12:18:11.684Z,21.59
2018-03-04T12:19:14.207Z,21.34
2018-03-04T12:20:16.753Z,21.75
2018-03-04T12:21:19.345Z,23.22
2018-03-04T12:22:21.881Z,22.75
2018-03-04T12:23:24.394Z,23.27
2018-03-04T12:24:26.930Z,23.41
2018-03-04T12:25:29.474Z,22.99
2018-03-04T12:26:31.999Z,23.56
2018-03-04T12:27:34.589Z,22.73
2018-03-04T12:28:37.386Z,22.86
2018-03-04T12:29:39.916Z,22.33
2018-03-04T12:30:42.458Z,22.70
2018-03-04T12:31:44.983Z,24.22
2018-03-04T12:32:47.554Z,24.55
2018-03-04T12:33:50.090Z,23.59
2018-03-04T12:34:52.607Z,24.97
2018-03-04T12:35:55.166Z,25.02
2018-03-04T12:36:57.734Z,23.33
2018-03-04T12:38:00.249Z,24.28
2018-03-04T12:39:02.803Z,24.98
2018-03-04T12:40:05.340Z,24.22
2018-03-04T12:41:07.882Z,24.04
2018-03-04T12:42:10.434Z,23.47
2018-03-04T12:43:12.945Z,22.53
2018-03-04T12:44:15.479Z,23.78
2018-03-04T12:45:18.048Z,24.59
2018-03-04T12:46:20.597Z,25.01
2018-03-04T12:47:23.320Z,25.09
2018-03-04T12:48:25.844Z,25.33
2018-03-04T12:49:28.366Z,25.95
2018-03-04T12:50:30.878Z,26.23
2018-03-04T12:51:33.424Z,26.08
2018-03-04T12:52:35.955Z,26.22
2018-03-04T12:53:38.488Z,27.63
2018-03-04T12:54:41.058Z,27.46
2018-03-04T12:55:43.605Z,26.27
2018-03-04T12:56:46.260Z,23.48
2018-03-04T12:57:48.789Z,24.03
2018-03-04T12:58:51.330Z,23.97
2018-03-04T12:59:53.847Z,25.57
2018-03-04T13:00:56.380Z,23.49
2018-03-04T13:01:58.930Z,23.67
2018-03-04T13:03:01.450Z,23.52
2018-03-04T13:04:03.996Z,22.15
2018-03-04T13:05:06.535Z,23.39
2018-03-04T13:06:09.070Z,25.62
2018-03-04T13:07:12.488Z,25.80
2018-03-04T13:08:15.077Z,26.32
2018-03-04T13:09:17.626Z,27.73
2018-03-04T13:10:20.179Z,24.09
2018-03-04T13:11:22.708Z,23.36
2018-03-04T13:12:25.256Z,24.06
2018-03-04T13:13:27.785Z,22.37
2018-03-04T13:14:30.395Z,20.74
2018-03-04T13:15:32.924Z,19.73
2018-03-04T13:16:35.468Z,19.71
2018-03-04T13:17:38.024Z,20.39
2018-03-04T13:18:40.555Z,21.44
2018-03-04T13:19:43.086Z,21.02
2018-03-04T13:20:45.636Z,22.20
2018-03-04T13:21:48.150Z,23.89
2018-03-04T13:22:50.704Z,22.98
2018-03-04T13:23:53.214Z,22.41
2018-03-04T13:24:55.731Z,21.74
2018-03-04T13:25:58.246Z,22.29
2018-03-04T13:27:00.909Z,22.41
2018-03-04T13:28:03.472Z,23.28
2018-03-04T13:29:06.047Z,22.83
2018-03-04T13:30:08.562Z,19.28
2018-03-04T13:31:11.088Z,19.14
2018-03-04T13:32:13.621Z,18.57
2018-03-04T13:33:16.341Z,19.44
2018-03-04T13:34:18.929Z,20.82
2018-03-04T13:35:21.427Z,21.36
2018-03-04T13:36:23.952Z,20.26
2018-03-04T13:37:26.481Z,20.00
2018-03-04T13:38:29.040Z,20.41
2018-03-04T13:39:31.576Z,21.18
2018-03-04T13:40:34.121Z,20.99
2018-03-04T13:41:36.668Z,21.95
2018-03-04T13:42:39.204Z,21.62
2018-03-04T13:43:41.757Z,18.54
2018-03-04T13:44:44.301Z,17.73
2018-03-04T13:45:46.864Z,19.31
2018-03-04T13:46:49.395Z,17.46
2018-03-04T13:47:51.928Z,17.69
2018-03-04T13:48:54.463Z,17.71
2018-03-04T13:49:57.016Z,17.05